sensor_id;sensor_type;location;lat;lon;timestamp;P1;durP1;ratioP1;P2;durP2;ratioP2
8871;SDS011;4472;52.092;9.820;2023-07-20T00:01:36;9.33;;;6.00;;
8871;SDS011;4472;52.092;9.820;2023-07-20T00:04:23;7.17;;;5.40;;
8871;SDS011;4472;52.092;9.820;2023-07-20T00:07:10;9.07;;;5.77;;
8871;SDS011;4472;52.092;9.820;2023-07-20T00:09:59;12.97;;;6.87;;
8871;SDS011;4472;52.092;9.820;2023-07-20T00:12:46;7.53;;;6.73;;
8871;SDS011;4472;52.092;9.820;2023-07-20T00:15:36;7.33;;;6.40;;
8871;SDS011;4472;52.092;9.820;2023-07-20T00:18:24;19.13;;;7.60;;
8871;SDS011;4472;52.092;9.820;2023-07-20T00:21:11;11.13;;;6.27;;
8871;SDS011;4472;52.092;9.820;2023-07-20T00:23:58;10.23;;;5.90;;
8871;SDS011;4472;52.092;9.820;2023-07-20T00:26:46;8.13;;;6.40;;
8871;SDS011;4472;52.092;9.820;2023-07-20T00:29:34;9.00;;;6.13;;
8871;SDS011;4472;52.092;9.820;2023-07-20T00:32:21;10.97;;;7.03;;
8871;SDS011;4472;52.092;9.820;2023-07-20T00:35:08;6.90;;;6.20;;
8871;SDS011;4472;52.092;9.820;2023-07-20T00:37:56;9.27;;;6.70;;
8871;SDS011;4472;52.092;9.820;2023-07-20T00:40:43;11.00;;;7.00;;
8871;SDS011;4472;52.092;9.820;2023-07-20T00:43:31;10.13;;;6.77;;
8871;SDS011;4472;52.092;9.820;2023-07-20T00:46:20;7.47;;;6.67;;
8871;SDS011;4472;52.092;9.820;2023-07-20T00:49:09;9.93;;;6.33;;
8871;SDS011;4472;52.092;9.820;2023-07-20T00:51:56;8.77;;;5.93;;
8871;SDS011;4472;52.092;9.820;2023-07-20T00:57:22;11.23;;;5.90;;
8871;SDS011;4472;52.092;9.820;2023-07-20T01:00:13;7.90;;;5.90;;
8871;SDS011;4472;52.092;9.820;2023-07-20T01:03:01;7.47;;;6.40;;
8871;SDS011;4472;52.092;9.820;2023-07-20T01:05:56;7.53;;;6.83;;
8871;SDS011;4472;52.092;9.820;2023-07-20T01:08:52;8.10;;;7.30;;
8871;SDS011;4472;52.092;9.820;2023-07-20T01:11:49;10.70;;;7.97;;
8871;SDS011;4472;52.092;9.820;2023-07-20T01:14:40;13.17;;;7.93;;
8871;SDS011;4472;52.092;9.820;2023-07-20T01:17:29;7.90;;;7.10;;
8871;SDS011;4472;52.092;9.820;2023-07-20T01:20:18;10.23;;;7.10;;
8871;SDS011;4472;52.092;9.820;2023-07-20T01:23:13;12.77;;;7.53;;
8871;SDS011;4472;52.092;9.820;2023-07-20T01:26:35;11.80;;;7.70;;
8871;SDS011;4472;52.092;9.820;2023-07-20T01:29:39;10.73;;;7.30;;
8871;SDS011;4472;52.092;9.820;2023-07-20T01:32:48;11.00;;;7.13;;
8871;SDS011;4472;52.092;9.820;2023-07-20T01:35:41;11.07;;;8.07;;
8871;SDS011;4472;52.092;9.820;2023-07-20T01:38:29;14.93;;;8.50;;
8871;SDS011;4472;52.092;9.820;2023-07-20T01:41:16;14.80;;;8.97;;
8871;SDS011;4472;52.092;9.820;2023-07-20T01:44:04;12.97;;;8.67;;
8871;SDS011;4472;52.092;9.820;2023-07-20T01:46:51;13.67;;;8.60;;
8871;SDS011;4472;52.092;9.820;2023-07-20T01:49:40;21.03;;;10.27;;
8871;SDS011;4472;52.092;9.820;2023-07-20T01:52:27;18.90;;;9.33;;
8871;SDS011;4472;52.092;9.820;2023-07-20T01:55:14;14.27;;;9.50;;
8871;SDS011;4472;52.092;9.820;2023-07-20T01:58:02;11.03;;;7.83;;
8871;SDS011;4472;52.092;9.820;2023-07-20T02:00:49;11.73;;;7.20;;
8871;SDS011;4472;52.092;9.820;2023-07-20T02:03:36;15.13;;;7.93;;
8871;SDS011;4472;52.092;9.820;2023-07-20T02:06:24;14.17;;;7.33;;
8871;SDS011;4472;52.092;9.820;2023-07-20T02:09:11;19.33;;;7.83;;
8871;SDS011;4472;52.092;9.820;2023-07-20T02:11:59;21.50;;;8.53;;
8871;SDS011;4472;52.092;9.820;2023-07-20T02:14:46;17.60;;;7.53;;
8871;SDS011;4472;52.092;9.820;2023-07-20T02:17:33;18.07;;;8.30;;
8871;SDS011;4472;52.092;9.820;2023-07-20T02:20:20;17.30;;;8.17;;
8871;SDS011;4472;52.092;9.820;2023-07-20T02:23:09;18.90;;;7.57;;
8871;SDS011;4472;52.092;9.820;2023-07-20T02:25:56;23.57;;;8.87;;
8871;SDS011;4472;52.092;9.820;2023-07-20T02:28:43;18.03;;;8.63;;
8871;SDS011;4472;52.092;9.820;2023-07-20T02:31:31;23.63;;;9.57;;
8871;SDS011;4472;52.092;9.820;2023-07-20T02:34:18;13.60;;;7.97;;
8871;SDS011;4472;52.092;9.820;2023-07-20T02:37:05;22.00;;;8.23;;
8871;SDS011;4472;52.092;9.820;2023-07-20T02:39:53;15.70;;;8.00;;
8871;SDS011;4472;52.092;9.820;2023-07-20T02:42:40;17.23;;;7.20;;
8871;SDS011;4472;52.092;9.820;2023-07-20T02:45:28;27.80;;;7.63;;
8871;SDS011;4472;52.092;9.820;2023-07-20T02:48:16;35.53;;;8.50;;
8871;SDS011;4472;52.092;9.820;2023-07-20T02:51:04;28.30;;;8.27;;
8871;SDS011;4472;52.092;9.820;2023-07-20T02:53:52;26.17;;;7.77;;
8871;SDS011;4472;52.092;9.820;2023-07-20T02:56:41;16.80;;;8.27;;
8871;SDS011;4472;52.092;9.820;2023-07-20T02:59:28;24.07;;;8.70;;
8871;SDS011;4472;52.092;9.820;2023-07-20T03:02:15;17.13;;;7.40;;
8871;SDS011;4472;52.092;9.820;2023-07-20T03:05:03;19.33;;;8.33;;
8871;SDS011;4472;52.092;9.820;2023-07-20T03:07:52;25.13;;;7.60;;
8871;SDS011;4472;52.092;9.820;2023-07-20T03:10:39;23.93;;;7.30;;
8871;SDS011;4472;52.092;9.820;2023-07-20T03:13:28;24.80;;;7.50;;
8871;SDS011;4472;52.092;9.820;2023-07-20T03:16:17;20.33;;;7.40;;
8871;SDS011;4472;52.092;9.820;2023-07-20T03:19:05;26.27;;;7.53;;
8871;SDS011;4472;52.092;9.820;2023-07-20T03:21:52;29.67;;;7.90;;
8871;SDS011;4472;52.092;9.820;2023-07-20T03:24:39;22.67;;;7.37;;
8871;SDS011;4472;52.092;9.820;2023-07-20T03:27:26;18.13;;;7.10;;
8871;SDS011;4472;52.092;9.820;2023-07-20T03:30:16;20.93;;;7.47;;
8871;SDS011;4472;52.092;9.820;2023-07-20T03:33:03;18.53;;;7.60;;
8871;SDS011;4472;52.092;9.820;2023-07-20T03:35:50;23.33;;;7.57;;
8871;SDS011;4472;52.092;9.820;2023-07-20T03:38:37;18.13;;;7.63;;
8871;SDS011;4472;52.092;9.820;2023-07-20T03:41:24;16.40;;;8.07;;
8871;SDS011;4472;52.092;9.820;2023-07-20T03:44:11;22.50;;;7.93;;
8871;SDS011;4472;52.092;9.820;2023-07-20T03:47:00;31.43;;;8.67;;
8871;SDS011;4472;52.092;9.820;2023-07-20T03:49:48;23.00;;;8.70;;
8871;SDS011;4472;52.092;9.820;2023-07-20T03:52:36;19.33;;;8.50;;
8871;SDS011;4472;52.092;9.820;2023-07-20T03:55:23;17.43;;;8.20;;
8871;SDS011;4472;52.092;9.820;2023-07-20T03:58:10;17.30;;;7.77;;
8871;SDS011;4472;52.092;9.820;2023-07-20T04:00:57;16.03;;;8.00;;
8871;SDS011;4472;52.092;9.820;2023-07-20T04:03:46;19.97;;;7.70;;
8871;SDS011;4472;52.092;9.820;2023-07-20T04:06:33;15.30;;;7.37;;
8871;SDS011;4472;52.092;9.820;2023-07-20T04:09:20;17.03;;;7.67;;
8871;SDS011;4472;52.092;9.820;2023-07-20T04:12:07;13.13;;;6.80;;
8871;SDS011;4472;52.092;9.820;2023-07-20T04:14:55;15.90;;;7.37;;
8871;SDS011;4472;52.092;9.820;2023-07-20T04:17:42;16.20;;;6.67;;
8871;SDS011;4472;52.092;9.820;2023-07-20T04:20:30;20.57;;;5.50;;
8871;SDS011;4472;52.092;9.820;2023-07-20T04:23:17;9.23;;;4.97;;
8871;SDS011;4472;52.092;9.820;2023-07-20T04:26:05;11.00;;;5.40;;
8871;SDS011;4472;52.092;9.820;2023-07-20T04:28:52;17.10;;;5.47;;
8871;SDS011;4472;52.092;9.820;2023-07-20T04:31:39;21.57;;;5.43;;
8871;SDS011;4472;52.092;9.820;2023-07-20T04:34:26;20.00;;;5.50;;
8871;SDS011;4472;52.092;9.820;2023-07-20T04:37:15;20.23;;;5.43;;
8871;SDS011;4472;52.092;9.820;2023-07-20T04:40:02;21.63;;;4.50;;
8871;SDS011;4472;52.092;9.820;2023-07-20T04:42:49;10.90;;;3.83;;
8871;SDS011;4472;52.092;9.820;2023-07-20T04:45:36;13.03;;;4.33;;
8871;SDS011;4472;52.092;9.820;2023-07-20T04:48:24;16.43;;;4.07;;
8871;SDS011;4472;52.092;9.820;2023-07-20T04:51:11;12.00;;;4.10;;
8871;SDS011;4472;52.092;9.820;2023-07-20T04:53:59;9.23;;;3.00;;
8871;SDS011;4472;52.092;9.820;2023-07-20T04:56:46;7.03;;;3.03;;
8871;SDS011;4472;52.092;9.820;2023-07-20T04:59:33;4.60;;;2.50;;
8871;SDS011;4472;52.092;9.820;2023-07-20T05:02:20;9.87;;;2.93;;
8871;SDS011;4472;52.092;9.820;2023-07-20T05:05:08;7.43;;;2.83;;
8871;SDS011;4472;52.092;9.820;2023-07-20T05:07:55;9.13;;;3.37;;
8871;SDS011;4472;52.092;9.820;2023-07-20T05:10:44;7.93;;;2.80;;
8871;SDS011;4472;52.092;9.820;2023-07-20T05:13:31;9.80;;;3.40;;
8871;SDS011;4472;52.092;9.820;2023-07-20T05:16:18;4.80;;;3.23;;
8871;SDS011;4472;52.092;9.820;2023-07-20T05:19:05;7.17;;;3.60;;
8871;SDS011;4472;52.092;9.820;2023-07-20T05:21:52;7.00;;;3.53;;
8871;SDS011;4472;52.092;9.820;2023-07-20T05:24:39;5.47;;;3.50;;
8871;SDS011;4472;52.092;9.820;2023-07-20T05:27:28;5.67;;;3.40;;
8871;SDS011;4472;52.092;9.820;2023-07-20T05:30:15;5.40;;;2.90;;
8871;SDS011;4472;52.092;9.820;2023-07-20T05:33:02;4.03;;;2.90;;
8871;SDS011;4472;52.092;9.820;2023-07-20T05:35:49;5.43;;;2.93;;
8871;SDS011;4472;52.092;9.820;2023-07-20T05:38:37;7.73;;;3.90;;
8871;SDS011;4472;52.092;9.820;2023-07-20T05:41:24;7.40;;;4.33;;
8871;SDS011;4472;52.092;9.820;2023-07-20T05:44:12;6.27;;;4.53;;
8871;SDS011;4472;52.092;9.820;2023-07-20T05:46:59;9.40;;;4.67;;
8871;SDS011;4472;52.092;9.820;2023-07-20T05:49:48;8.40;;;4.10;;
8871;SDS011;4472;52.092;9.820;2023-07-20T05:52:35;8.20;;;4.33;;
8871;SDS011;4472;52.092;9.820;2023-07-20T05:55:24;4.17;;;2.93;;
8871;SDS011;4472;52.092;9.820;2023-07-20T05:58:11;5.23;;;2.27;;
8871;SDS011;4472;52.092;9.820;2023-07-20T06:00:59;2.50;;;1.80;;
8871;SDS011;4472;52.092;9.820;2023-07-20T06:03:47;2.17;;;1.90;;
8871;SDS011;4472;52.092;9.820;2023-07-20T06:06:35;1.80;;;1.70;;
8871;SDS011;4472;52.092;9.820;2023-07-20T06:09:22;3.37;;;2.10;;
8871;SDS011;4472;52.092;9.820;2023-07-20T06:12:18;7.87;;;2.60;;
8871;SDS011;4472;52.092;9.820;2023-07-20T06:15:09;3.30;;;3.00;;
8871;SDS011;4472;52.092;9.820;2023-07-20T06:18:12;4.57;;;3.80;;
8871;SDS011;4472;52.092;9.820;2023-07-20T06:24:33;5.20;;;4.03;;
8871;SDS011;4472;52.092;9.820;2023-07-20T06:27:20;4.40;;;3.70;;
8871;SDS011;4472;52.092;9.820;2023-07-20T06:30:08;4.60;;;4.10;;
8871;SDS011;4472;52.092;9.820;2023-07-20T06:32:57;5.40;;;4.80;;
8871;SDS011;4472;52.092;9.820;2023-07-20T06:35:46;6.17;;;4.60;;
8871;SDS011;4472;52.092;9.820;2023-07-20T06:38:33;6.30;;;5.43;;
8871;SDS011;4472;52.092;9.820;2023-07-20T06:41:21;6.00;;;5.50;;
8871;SDS011;4472;52.092;9.820;2023-07-20T06:44:08;6.93;;;5.60;;
8871;SDS011;4472;52.092;9.820;2023-07-20T06:46:56;5.67;;;4.80;;
8871;SDS011;4472;52.092;9.820;2023-07-20T06:49:43;6.37;;;5.07;;
8871;SDS011;4472;52.092;9.820;2023-07-20T06:52:32;5.13;;;4.63;;
8871;SDS011;4472;52.092;9.820;2023-07-20T06:55:19;5.40;;;4.83;;
8871;SDS011;4472;52.092;9.820;2023-07-20T06:58:06;4.93;;;4.37;;
8871;SDS011;4472;52.092;9.820;2023-07-20T07:00:53;5.63;;;3.53;;
8871;SDS011;4472;52.092;9.820;2023-07-20T07:03:40;4.23;;;3.80;;
8871;SDS011;4472;52.092;9.820;2023-07-20T07:06:29;4.13;;;3.83;;
8871;SDS011;4472;52.092;9.820;2023-07-20T07:09:17;3.80;;;3.50;;
8871;SDS011;4472;52.092;9.820;2023-07-20T07:12:05;4.20;;;3.13;;
8871;SDS011;4472;52.092;9.820;2023-07-20T07:14:53;4.20;;;3.37;;
8871;SDS011;4472;52.092;9.820;2023-07-20T07:17:40;3.90;;;3.37;;
8871;SDS011;4472;52.092;9.820;2023-07-20T07:20:29;3.80;;;2.93;;
8871;SDS011;4472;52.092;9.820;2023-07-20T07:23:16;3.30;;;3.00;;
8871;SDS011;4472;52.092;9.820;2023-07-20T07:26:05;3.87;;;2.90;;
8871;SDS011;4472;52.092;9.820;2023-07-20T07:28:52;3.07;;;2.87;;
8871;SDS011;4472;52.092;9.820;2023-07-20T07:31:39;2.73;;;2.53;;
8871;SDS011;4472;52.092;9.820;2023-07-20T07:34:26;2.80;;;2.60;;
8871;SDS011;4472;52.092;9.820;2023-07-20T07:37:13;4.33;;;2.10;;
8871;SDS011;4472;52.092;9.820;2023-07-20T07:40:00;2.30;;;2.10;;
8871;SDS011;4472;52.092;9.820;2023-07-20T07:42:49;2.20;;;2.00;;
8871;SDS011;4472;52.092;9.820;2023-07-20T07:45:36;2.27;;;1.90;;
8871;SDS011;4472;52.092;9.820;2023-07-20T07:48:24;2.57;;;2.33;;
8871;SDS011;4472;52.092;9.820;2023-07-20T07:51:11;2.47;;;2.27;;
8871;SDS011;4472;52.092;9.820;2023-07-20T07:53:58;2.80;;;2.00;;
8871;SDS011;4472;52.092;9.820;2023-07-20T07:56:46;2.20;;;2.00;;
8871;SDS011;4472;52.092;9.820;2023-07-20T07:59:34;2.93;;;2.13;;
8871;SDS011;4472;52.092;9.820;2023-07-20T08:02:23;2.10;;;1.90;;
8871;SDS011;4472;52.092;9.820;2023-07-20T08:05:10;1.90;;;1.80;;
8871;SDS011;4472;52.092;9.820;2023-07-20T08:07:57;2.80;;;1.90;;
8871;SDS011;4472;52.092;9.820;2023-07-20T08:10:44;4.33;;;2.40;;
8871;SDS011;4472;52.092;9.820;2023-07-20T08:13:31;2.93;;;2.27;;
8871;SDS011;4472;52.092;9.820;2023-07-20T08:16:20;3.57;;;2.20;;
8871;SDS011;4472;52.092;9.820;2023-07-20T08:19:07;2.27;;;2.10;;
8871;SDS011;4472;52.092;9.820;2023-07-20T08:21:54;2.30;;;2.07;;
8871;SDS011;4472;52.092;9.820;2023-07-20T08:24:41;2.30;;;2.10;;
8871;SDS011;4472;52.092;9.820;2023-07-20T08:27:29;2.53;;;2.30;;
8871;SDS011;4472;52.092;9.820;2023-07-20T08:30:16;2.90;;;2.10;;
8871;SDS011;4472;52.092;9.820;2023-07-20T08:33:05;2.10;;;2.00;;
8871;SDS011;4472;52.092;9.820;2023-07-20T08:35:52;2.07;;;1.77;;
8871;SDS011;4472;52.092;9.820;2023-07-20T08:38:40;2.10;;;2.00;;
8871;SDS011;4472;52.092;9.820;2023-07-20T08:41:27;2.70;;;2.20;;
8871;SDS011;4472;52.092;9.820;2023-07-20T08:44:15;2.20;;;2.10;;
8871;SDS011;4472;52.092;9.820;2023-07-20T08:47:02;3.53;;;2.90;;
8871;SDS011;4472;52.092;9.820;2023-07-20T08:49:51;2.40;;;2.20;;
8871;SDS011;4472;52.092;9.820;2023-07-20T08:52:40;2.70;;;2.50;;
8871;SDS011;4472;52.092;9.820;2023-07-20T08:55:28;3.20;;;2.30;;
8871;SDS011;4472;52.092;9.820;2023-07-20T08:58:16;2.27;;;2.10;;
8871;SDS011;4472;52.092;9.820;2023-07-20T09:01:03;2.37;;;2.10;;
8871;SDS011;4472;52.092;9.820;2023-07-20T09:03:51;2.23;;;2.13;;
8871;SDS011;4472;52.092;9.820;2023-07-20T09:06:39;2.10;;;1.90;;
8871;SDS011;4472;52.092;9.820;2023-07-20T09:09:27;3.77;;;1.90;;
8871;SDS011;4472;52.092;9.820;2023-07-20T09:12:14;2.10;;;2.00;;
8871;SDS011;4472;52.092;9.820;2023-07-20T09:15:01;2.20;;;2.00;;
8871;SDS011;4472;52.092;9.820;2023-07-20T09:17:49;3.60;;;2.00;;
8871;SDS011;4472;52.092;9.820;2023-07-20T09:20:39;1.50;;;1.40;;
8871;SDS011;4472;52.092;9.820;2023-07-20T09:23:32;2.00;;;1.50;;
8871;SDS011;4472;52.092;9.820;2023-07-20T09:26:20;1.60;;;1.50;;
8871;SDS011;4472;52.092;9.820;2023-07-20T09:29:07;3.27;;;1.97;;
8871;SDS011;4472;52.092;9.820;2023-07-20T09:31:58;3.20;;;1.70;;
8871;SDS011;4472;52.092;9.820;2023-07-20T09:34:47;3.80;;;1.93;;
8871;SDS011;4472;52.092;9.820;2023-07-20T09:37:36;1.47;;;1.40;;
8871;SDS011;4472;52.092;9.820;2023-07-20T09:40:25;1.57;;;1.47;;
8871;SDS011;4472;52.092;9.820;2023-07-20T09:43:13;1.30;;;1.30;;
8871;SDS011;4472;52.092;9.820;2023-07-20T09:46:02;1.87;;;1.70;;
8871;SDS011;4472;52.092;9.820;2023-07-20T09:48:53;2.53;;;1.90;;
8871;SDS011;4472;52.092;9.820;2023-07-20T09:51:40;24.63;;;13.83;;
8871;SDS011;4472;52.092;9.820;2023-07-20T09:54:28;44.27;;;17.27;;
8871;SDS011;4472;52.092;9.820;2023-07-20T09:57:16;5.30;;;3.80;;
8871;SDS011;4472;52.092;9.820;2023-07-20T10:00:05;17.23;;;11.83;;
8871;SDS011;4472;52.092;9.820;2023-07-20T10:02:58;2.30;;;1.60;;
8871;SDS011;4472;52.092;9.820;2023-07-20T10:05:51;1.43;;;1.33;;
8871;SDS011;4472;52.092;9.820;2023-07-20T10:08:41;1.30;;;1.20;;
8871;SDS011;4472;52.092;9.820;2023-07-20T10:11:30;1.97;;;1.20;;
8871;SDS011;4472;52.092;9.820;2023-07-20T10:14:22;2.73;;;1.37;;
8871;SDS011;4472;52.092;9.820;2023-07-20T10:17:11;2.10;;;1.30;;
8871;SDS011;4472;52.092;9.820;2023-07-20T10:20:01;1.77;;;1.23;;
8871;SDS011;4472;52.092;9.820;2023-07-20T10:22:51;1.40;;;1.20;;
8871;SDS011;4472;52.092;9.820;2023-07-20T10:25:40;1.83;;;1.30;;
8871;SDS011;4472;52.092;9.820;2023-07-20T10:28:28;1.37;;;1.27;;
8871;SDS011;4472;52.092;9.820;2023-07-20T10:31:16;1.80;;;1.70;;
8871;SDS011;4472;52.092;9.820;2023-07-20T10:34:04;6.67;;;3.27;;
8871;SDS011;4472;52.092;9.820;2023-07-20T10:36:51;3.00;;;1.40;;
8871;SDS011;4472;52.092;9.820;2023-07-20T10:39:39;4.13;;;3.33;;
8871;SDS011;4472;52.092;9.820;2023-07-20T10:42:31;5.00;;;3.93;;
8871;SDS011;4472;52.092;9.820;2023-07-20T10:45:20;2.13;;;1.20;;
8871;SDS011;4472;52.092;9.820;2023-07-20T10:48:14;1.53;;;1.43;;
8871;SDS011;4472;52.092;9.820;2023-07-20T10:51:08;1.17;;;1.17;;
8871;SDS011;4472;52.092;9.820;2023-07-20T10:53:57;1.20;;;1.10;;
8871;SDS011;4472;52.092;9.820;2023-07-20T10:56:46;1.10;;;1.00;;
8871;SDS011;4472;52.092;9.820;2023-07-20T10:59:37;1.10;;;1.10;;
8871;SDS011;4472;52.092;9.820;2023-07-20T11:02:25;1.07;;;1.07;;
8871;SDS011;4472;52.092;9.820;2023-07-20T11:08:37;1.07;;;1.07;;
8871;SDS011;4472;52.092;9.820;2023-07-20T11:11:25;1.00;;;1.00;;
8871;SDS011;4472;52.092;9.820;2023-07-20T11:14:20;0.90;;;0.90;;
8871;SDS011;4472;52.092;9.820;2023-07-20T11:17:11;1.00;;;0.90;;
8871;SDS011;4472;52.092;9.820;2023-07-20T11:20:00;1.57;;;1.00;;
8871;SDS011;4472;52.092;9.820;2023-07-20T11:22:50;1.30;;;1.00;;
8871;SDS011;4472;52.092;9.820;2023-07-20T11:25:39;0.90;;;0.90;;
8871;SDS011;4472;52.092;9.820;2023-07-20T11:28:29;1.40;;;1.20;;
8871;SDS011;4472;52.092;9.820;2023-07-20T11:31:16;1.70;;;1.00;;
8871;SDS011;4472;52.092;9.820;2023-07-20T11:34:03;1.07;;;0.90;;
8871;SDS011;4472;52.092;9.820;2023-07-20T11:36:51;3.70;;;1.27;;
8871;SDS011;4472;52.092;9.820;2023-07-20T11:39:40;1.20;;;1.10;;
8871;SDS011;4472;52.092;9.820;2023-07-20T11:42:27;1.10;;;1.00;;
8871;SDS011;4472;52.092;9.820;2023-07-20T11:45:15;1.90;;;1.00;;
8871;SDS011;4472;52.092;9.820;2023-07-20T11:48:03;1.60;;;1.00;;
8871;SDS011;4472;52.092;9.820;2023-07-20T11:50:50;1.30;;;1.20;;
8871;SDS011;4472;52.092;9.820;2023-07-20T11:53:37;2.30;;;1.30;;
8871;SDS011;4472;52.092;9.820;2023-07-20T11:56:26;1.13;;;1.00;;
8871;SDS011;4472;52.092;9.820;2023-07-20T11:59:13;1.13;;;1.07;;
8871;SDS011;4472;52.092;9.820;2023-07-20T12:02:01;1.00;;;1.00;;
8871;SDS011;4472;52.092;9.820;2023-07-20T12:04:48;2.00;;;1.10;;
8871;SDS011;4472;52.092;9.820;2023-07-20T12:07:36;0.90;;;0.90;;
8871;SDS011;4472;52.092;9.820;2023-07-20T12:10:25;1.00;;;1.00;;
8871;SDS011;4472;52.092;9.820;2023-07-20T12:13:15;1.10;;;1.10;;
8871;SDS011;4472;52.092;9.820;2023-07-20T12:16:06;1.07;;;1.07;;
8871;SDS011;4472;52.092;9.820;2023-07-20T12:19:01;1.03;;;1.03;;
8871;SDS011;4472;52.092;9.820;2023-07-20T12:21:49;1.37;;;0.90;;
8871;SDS011;4472;52.092;9.820;2023-07-20T12:24:36;0.90;;;0.90;;
8871;SDS011;4472;52.092;9.820;2023-07-20T12:27:27;0.90;;;0.90;;
8871;SDS011;4472;52.092;9.820;2023-07-20T12:30:15;1.10;;;1.00;;
8871;SDS011;4472;52.092;9.820;2023-07-20T12:33:03;1.00;;;1.00;;
8871;SDS011;4472;52.092;9.820;2023-07-20T12:35:50;1.17;;;1.00;;
8871;SDS011;4472;52.092;9.820;2023-07-20T12:42:23;0.93;;;0.93;;
8871;SDS011;4472;52.092;9.820;2023-07-20T12:45:10;1.87;;;1.10;;
8871;SDS011;4472;52.092;9.820;2023-07-20T12:48:00;0.90;;;0.90;;
8871;SDS011;4472;52.092;9.820;2023-07-20T12:50:47;0.93;;;0.93;;
8871;SDS011;4472;52.092;9.820;2023-07-20T12:53:34;2.67;;;1.23;;
8871;SDS011;4472;52.092;9.820;2023-07-20T12:56:22;0.90;;;0.90;;
8871;SDS011;4472;52.092;9.820;2023-07-20T12:59:09;2.43;;;1.13;;
8871;SDS011;4472;52.092;9.820;2023-07-20T13:01:56;1.30;;;1.20;;
8871;SDS011;4472;52.092;9.820;2023-07-20T13:04:44;1.30;;;1.20;;
8871;SDS011;4472;52.092;9.820;2023-07-20T13:07:33;1.30;;;1.20;;
8871;SDS011;4472;52.092;9.820;2023-07-20T13:10:21;1.60;;;1.57;;
8871;SDS011;4472;52.092;9.820;2023-07-20T13:13:08;1.00;;;1.00;;
8871;SDS011;4472;52.092;9.820;2023-07-20T13:15:56;1.30;;;1.20;;
8871;SDS011;4472;52.092;9.820;2023-07-20T13:18:43;1.83;;;1.07;;
8871;SDS011;4472;52.092;9.820;2023-07-20T13:21:32;1.70;;;1.10;;
8871;SDS011;4472;52.092;9.820;2023-07-20T13:24:19;1.20;;;1.20;;
8871;SDS011;4472;52.092;9.820;2023-07-20T13:27:06;1.00;;;1.00;;
8871;SDS011;4472;52.092;9.820;2023-07-20T13:29:53;1.30;;;1.20;;
8871;SDS011;4472;52.092;9.820;2023-07-20T13:32:41;1.20;;;1.20;;
8871;SDS011;4472;52.092;9.820;2023-07-20T13:35:28;2.83;;;1.30;;
8871;SDS011;4472;52.092;9.820;2023-07-20T13:38:16;1.80;;;1.30;;
8871;SDS011;4472;52.092;9.820;2023-07-20T13:41:03;1.07;;;1.07;;
8871;SDS011;4472;52.092;9.820;2023-07-20T13:43:51;1.13;;;1.10;;
8871;SDS011;4472;52.092;9.820;2023-07-20T13:46:38;1.40;;;1.30;;
8871;SDS011;4472;52.092;9.820;2023-07-20T13:49:25;1.33;;;1.10;;
8871;SDS011;4472;52.092;9.820;2023-07-20T13:52:13;1.17;;;1.00;;
8871;SDS011;4472;52.092;9.820;2023-07-20T13:55:01;1.07;;;0.97;;
8871;SDS011;4472;52.092;9.820;2023-07-20T13:57:49;1.07;;;1.07;;
8871;SDS011;4472;52.092;9.820;2023-07-20T14:00:37;3.40;;;1.10;;
8871;SDS011;4472;52.092;9.820;2023-07-20T14:03:24;1.07;;;1.07;;
8871;SDS011;4472;52.092;9.820;2023-07-20T14:09:53;1.30;;;1.20;;
8871;SDS011;4472;52.092;9.820;2023-07-20T14:12:42;1.30;;;1.20;;
8871;SDS011;4472;52.092;9.820;2023-07-20T14:15:30;1.00;;;1.00;;
8871;SDS011;4472;52.092;9.820;2023-07-20T14:18:17;1.50;;;1.40;;
8871;SDS011;4472;52.092;9.820;2023-07-20T14:21:04;1.83;;;1.17;;
8871;SDS011;4472;52.092;9.820;2023-07-20T14:23:52;1.43;;;1.33;;
8871;SDS011;4472;52.092;9.820;2023-07-20T14:26:39;1.30;;;1.20;;
8871;SDS011;4472;52.092;9.820;2023-07-20T14:29:27;1.10;;;1.10;;
8871;SDS011;4472;52.092;9.820;2023-07-20T14:32:16;1.40;;;1.30;;
8871;SDS011;4472;52.092;9.820;2023-07-20T14:35:04;1.20;;;1.20;;
8871;SDS011;4472;52.092;9.820;2023-07-20T14:37:51;1.40;;;1.30;;
8871;SDS011;4472;52.092;9.820;2023-07-20T14:40:39;1.27;;;1.27;;
8871;SDS011;4472;52.092;9.820;2023-07-20T14:43:26;1.30;;;1.20;;
8871;SDS011;4472;52.092;9.820;2023-07-20T14:46:15;2.40;;;1.23;;
8871;SDS011;4472;52.092;9.820;2023-07-20T14:49:02;1.30;;;1.30;;
8871;SDS011;4472;52.092;9.820;2023-07-20T14:51:49;2.63;;;1.20;;
8871;SDS011;4472;52.092;9.820;2023-07-20T14:54:36;2.57;;;1.20;;
8871;SDS011;4472;52.092;9.820;2023-07-20T14:57:23;1.30;;;1.20;;
8871;SDS011;4472;52.092;9.820;2023-07-20T15:00:11;2.03;;;1.23;;
8871;SDS011;4472;52.092;9.820;2023-07-20T15:03:00;2.23;;;1.30;;
8871;SDS011;4472;52.092;9.820;2023-07-20T15:05:47;1.30;;;1.20;;
8871;SDS011;4472;52.092;9.820;2023-07-20T15:08:36;1.90;;;1.20;;
8871;SDS011;4472;52.092;9.820;2023-07-20T15:11:23;2.73;;;1.37;;
8871;SDS011;4472;52.092;9.820;2023-07-20T15:14:10;1.37;;;1.23;;
8871;SDS011;4472;52.092;9.820;2023-07-20T15:16:58;2.33;;;1.57;;
8871;SDS011;4472;52.092;9.820;2023-07-20T15:19:46;1.20;;;1.20;;
8871;SDS011;4472;52.092;9.820;2023-07-20T15:22:33;1.20;;;1.20;;
8871;SDS011;4472;52.092;9.820;2023-07-20T15:25:21;1.47;;;1.37;;
8871;SDS011;4472;52.092;9.820;2023-07-20T15:28:08;1.27;;;1.20;;
8871;SDS011;4472;52.092;9.820;2023-07-20T15:30:59;1.43;;;1.20;;
8871;SDS011;4472;52.092;9.820;2023-07-20T15:33:47;2.83;;;1.23;;
8871;SDS011;4472;52.092;9.820;2023-07-20T15:36:35;1.30;;;1.20;;
8871;SDS011;4472;52.092;9.820;2023-07-20T15:39:22;1.30;;;1.30;;
8871;SDS011;4472;52.092;9.820;2023-07-20T15:42:10;1.50;;;1.40;;
8871;SDS011;4472;52.092;9.820;2023-07-20T15:44:57;1.50;;;1.40;;
8871;SDS011;4472;52.092;9.820;2023-07-20T15:47:45;1.60;;;1.50;;
8871;SDS011;4472;52.092;9.820;2023-07-20T15:50:32;1.37;;;1.27;;
8871;SDS011;4472;52.092;9.820;2023-07-20T15:53:21;2.60;;;1.33;;
8871;SDS011;4472;52.092;9.820;2023-07-20T15:56:08;1.60;;;1.50;;
8871;SDS011;4472;52.092;9.820;2023-07-20T15:58:55;2.50;;;1.40;;
8871;SDS011;4472;52.092;9.820;2023-07-20T16:01:43;1.60;;;1.50;;
8871;SDS011;4472;52.092;9.820;2023-07-20T16:04:30;1.37;;;1.27;;
8871;SDS011;4472;52.092;9.820;2023-07-20T16:07:17;1.93;;;1.47;;
8871;SDS011;4472;52.092;9.820;2023-07-20T16:10:07;1.40;;;1.30;;
8871;SDS011;4472;52.092;9.820;2023-07-20T16:12:55;1.77;;;1.50;;
8871;SDS011;4472;52.092;9.820;2023-07-20T16:15:42;1.57;;;1.30;;
8871;SDS011;4472;52.092;9.820;2023-07-20T16:18:29;1.50;;;1.50;;
8871;SDS011;4472;52.092;9.820;2023-07-20T16:21:16;1.70;;;1.60;;
8871;SDS011;4472;52.092;9.820;2023-07-20T16:24:04;1.63;;;1.50;;
8871;SDS011;4472;52.092;9.820;2023-07-20T16:26:53;2.80;;;1.53;;
8871;SDS011;4472;52.092;9.820;2023-07-20T16:29:40;1.80;;;1.70;;
8871;SDS011;4472;52.092;9.820;2023-07-20T16:32:27;2.27;;;1.50;;
8871;SDS011;4472;52.092;9.820;2023-07-20T16:35:15;1.60;;;1.50;;
8871;SDS011;4472;52.092;9.820;2023-07-20T16:38:03;2.30;;;1.60;;
8871;SDS011;4472;52.092;9.820;2023-07-20T16:40:54;1.40;;;1.30;;
8871;SDS011;4472;52.092;9.820;2023-07-20T16:43:43;2.10;;;1.40;;
8871;SDS011;4472;52.092;9.820;2023-07-20T16:46:30;2.40;;;1.40;;
8871;SDS011;4472;52.092;9.820;2023-07-20T16:49:18;4.77;;;2.07;;
8871;SDS011;4472;52.092;9.820;2023-07-20T16:52:06;4.37;;;1.83;;
8871;SDS011;4472;52.092;9.820;2023-07-20T16:54:54;1.87;;;1.50;;
8871;SDS011;4472;52.092;9.820;2023-07-20T16:57:41;1.70;;;1.60;;
8871;SDS011;4472;52.092;9.820;2023-07-20T17:00:30;3.10;;;1.70;;
8871;SDS011;4472;52.092;9.820;2023-07-20T17:03:17;1.63;;;1.53;;
8871;SDS011;4472;52.092;9.820;2023-07-20T17:06:04;1.80;;;1.70;;
8871;SDS011;4472;52.092;9.820;2023-07-20T17:08:52;1.70;;;1.60;;
8871;SDS011;4472;52.092;9.820;2023-07-20T17:11:40;2.33;;;1.50;;
8871;SDS011;4472;52.092;9.820;2023-07-20T17:14:28;2.23;;;1.60;;
8871;SDS011;4472;52.092;9.820;2023-07-20T17:17:16;6.83;;;1.40;;
8871;SDS011;4472;52.092;9.820;2023-07-20T17:20:04;1.80;;;1.70;;
8871;SDS011;4472;52.092;9.820;2023-07-20T17:22:56;1.60;;;1.50;;
8871;SDS011;4472;52.092;9.820;2023-07-20T17:25:43;2.33;;;1.57;;
8871;SDS011;4472;52.092;9.820;2023-07-20T17:28:31;2.67;;;1.43;;
8871;SDS011;4472;52.092;9.820;2023-07-20T17:31:19;2.00;;;1.57;;
8871;SDS011;4472;52.092;9.820;2023-07-20T17:34:08;2.97;;;1.53;;
8871;SDS011;4472;52.092;9.820;2023-07-20T17:36:58;1.87;;;1.77;;
8871;SDS011;4472;52.092;9.820;2023-07-20T17:39:45;2.30;;;1.80;;